KSMX/SMX METAR and TAF weather

Enter ICAO airport designator
Station Type Date Time Source
KSMX METAR 2019/10/15 08:20 UTC NOAA

KSMX 150820Z AUTO 00000KT 1SM R12/P6000FT BR OVC002 12/11 A3001 RMK AO2 T01220106 TSNO


Station Type Date Time Source
KSMX Decoded METAR 2019/10/15 08:20 UTC NOAA

SANTA MARIA PUBLIC AIRPORT, CA, United States (KSMX) 34-54N 120-28W 74M
Oct 15, 2019 - 04:20 AM EDT / 2019.10.15 0820 UTC
Wind: Calm:0
Visibility: 1 mile(s):0
Sky conditions: overcast
Weather: mist
Temperature: 54.0 F (12.2 C)
Dew Point: 51.1 F (10.6 C)
Relative Humidity: 89%
Pressure (altimeter): 30.01 in. Hg (1016 hPa)
ob: KSMX 150820Z AUTO 00000KT 1SM R12/P6000FT BR OVC002 12/11 A3001 RMK AO2 T01220106 TSNO
cycle: 8

Station Type Date Time Source
KSMX TAF 2019/10/15 08:51 UTC NOAA

TAF
AMD KSMX 150749Z 1508/1606 VRB03KT 2SM BR OVC003
FM150900 VRB03KT 1/2SM FG VV002
FM151500 VRB03KT 4SM BR BKN004
FM151700 VRB03KT P6SM SKC
FM152000 31010KT P6SM SKC
FM160400 VRB03KT P6SM SKC

Example: see airport list